createdAt,value
2022-09-24T00:02:15.035Z,1.1
2022-09-24T00:07:37.134Z,1
2022-09-24T00:13:14.362Z,1
2022-09-24T00:18:51.057Z,0.9
2022-09-24T00:24:28.019Z,0.8
2022-09-24T00:30:05.091Z,0.8
2022-09-24T00:35:43.295Z,0.8
2022-09-24T00:41:21.331Z,0.7
2022-09-24T00:46:26.661Z,0.6
2022-09-24T00:51:48.613Z,0.8
2022-09-24T00:56:55.308Z,0.8
2022-09-24T01:02:17.816Z,0.7
2022-09-24T01:07:39.979Z,0.6
2022-09-24T01:12:45.805Z,0.5
2022-09-24T01:18:08.407Z,0.5
2022-09-24T01:23:30.105Z,0.4
2022-09-24T01:28:54.036Z,0.4
2022-09-24T01:34:17.907Z,0.4
2022-09-24T01:39:40.130Z,0.3
2022-09-24T01:45:01.882Z,0.3
2022-09-24T01:50:10.267Z,0.2
2022-09-24T01:55:32.567Z,0.2
2022-09-24T02:00:54.807Z,0.2
2022-09-24T02:06:01.648Z,0.1
2022-09-24T02:11:08.493Z,0.1
2022-09-24T02:16:45.283Z,-0.1
2022-09-24T02:22:07.186Z,-0.2
2022-09-24T02:27:30.053Z,-0.2
2022-09-24T02:33:07.912Z,-0.1
2022-09-24T02:38:29.431Z,-0.2
2022-09-24T02:44:07.300Z,-0.2
2022-09-24T02:49:29.496Z,-0.3
2022-09-24T02:55:06.624Z,-0.3
2022-09-24T03:00:28.568Z,-0.4
2022-09-24T03:06:07.116Z,-0.3
2022-09-24T03:11:34.261Z,-0.4
2022-09-24T03:16:55.909Z,-0.4
2022-09-24T03:22:32.432Z,-0.5
2022-09-24T03:27:38.637Z,-0.5
2022-09-24T03:33:00.921Z,-0.5
2022-09-24T03:38:23.205Z,-0.5
2022-09-24T03:43:43.901Z,-0.5
2022-09-24T03:49:05.740Z,-0.5
2022-09-24T03:54:27.743Z,-0.6
2022-09-24T03:59:48.575Z,-0.6
2022-09-24T04:04:59.713Z,-0.6
2022-09-24T04:10:40.370Z,-0.6
2022-09-24T04:16:01.736Z,-0.6
2022-09-24T04:21:39.208Z,-0.7
2022-09-24T04:27:16.115Z,-0.6
2022-09-24T04:32:37.819Z,-0.6
2022-09-24T04:38:16.453Z,-0.5
2022-09-24T04:43:54.149Z,-0.3
2022-09-24T04:49:31.966Z,-0.1
2022-09-24T04:55:00.355Z,0.3
2022-09-24T05:00:38.309Z,0.9
2022-09-24T05:06:22.250Z,2.2
2022-09-24T05:12:04.969Z,5.9
2022-09-24T05:17:28.504Z,9.1
2022-09-24T05:22:50.515Z,11.9
2022-09-24T05:28:12.598Z,14.8
2022-09-24T05:33:51.221Z,18
2022-09-24T05:44:41.453Z,24.1
2022-09-24T05:50:19.436Z,27.2
2022-09-24T05:55:28.811Z,30
2022-09-24T06:00:54.441Z,32.9
2022-09-24T06:06:06.123Z,35.7
2022-09-24T06:11:28.745Z,38.3
2022-09-24T06:16:36.441Z,41
2022-09-24T06:21:58.954Z,43.9
2022-09-24T06:27:21.191Z,46.7
2022-09-24T06:32:32.337Z,49.9
2022-09-24T06:37:55.584Z,52.6
2022-09-24T06:43:02.743Z,39.5
2022-09-24T06:48:25.080Z,39.1
2022-09-24T06:54:06.009Z,47.1
2022-09-24T06:59:30.532Z,50.4
2022-09-24T07:04:53.521Z,40.6
2022-09-24T07:10:31.731Z,45.6
2022-09-24T07:16:09.523Z,52.5
2022-09-24T07:21:49.906Z,44.3
2022-09-24T07:27:27.991Z,44.3
2022-09-24T07:33:05.448Z,45.2
2022-09-24T07:38:27.767Z,46.2
2022-09-24T07:44:06.247Z,47.4
2022-09-24T07:49:33.173Z,48.4
2022-09-24T07:54:55.374Z,49.4
2022-09-24T08:00:17.663Z,50.5
2022-09-24T08:05:56.105Z,51.5
2022-09-24T08:11:20.640Z,52.5
2022-09-24T08:16:43.782Z,53.6
2022-09-24T08:22:21.197Z,54.6
2022-09-24T08:27:59.015Z,55.4
2022-09-24T08:33:36.115Z,56.3
2022-09-24T08:39:17.952Z,57.1
2022-09-24T08:44:56.317Z,57.9
2022-09-24T08:50:34.431Z,58.3
2022-09-24T08:56:12.422Z,58.6
2022-09-24T09:01:36.754Z,59.4
2022-09-24T09:07:18.091Z,60.3
2022-09-24T09:13:38.416Z,61
2022-09-24T09:19:04.687Z,61.6
2022-09-24T09:24:42.165Z,62.4
2022-09-24T09:30:13.397Z,62.8
2022-09-24T09:35:24.435Z,63.2
2022-09-24T09:40:52.495Z,64
2022-09-24T09:46:18.628Z,64.1
2022-09-24T09:51:41.371Z,64
2022-09-24T09:57:03.061Z,63.7
2022-09-24T10:02:25.598Z,62.9
2022-09-24T10:08:10.376Z,62.9
2022-09-24T10:13:48.320Z,61.8
2022-09-24T10:19:28.191Z,60.9
2022-09-24T10:25:11.102Z,60.7
2022-09-24T10:30:17.737Z,60.3
2022-09-24T10:35:24.855Z,61.3
2022-09-24T10:40:36.844Z,61.6
2022-09-24T10:45:43.725Z,62.6
2022-09-24T10:51:06.359Z,62.3
2022-09-24T10:56:19.268Z,62.4
2022-09-24T11:01:26.555Z,63.3
2022-09-24T11:07:06.359Z,63.3
2022-09-24T11:12:46.157Z,63.3
2022-09-24T11:18:23.994Z,63.8
2022-09-24T11:23:31.022Z,64.2
2022-09-24T11:29:09.105Z,63.9
2022-09-24T11:34:35.930Z,64.2
2022-09-24T11:40:13.349Z,63.9
2022-09-24T11:45:51.720Z,62.4
2022-09-24T11:51:32.628Z,64.1
2022-09-24T11:56:57.859Z,64.1
2022-09-24T12:02:19.996Z,63.1
2022-09-24T12:07:57.926Z,64.3
2022-09-24T12:13:19.565Z,63.3
2022-09-24T12:18:42.063Z,63.9
2022-09-24T12:23:49.451Z,59.1
2022-09-24T12:29:12.291Z,59.3
2022-09-24T12:34:39.324Z,64.5
2022-09-24T12:40:06.949Z,69.6
2022-09-24T12:45:50.294Z,65.1
2022-09-24T12:51:12.818Z,57.7
2022-09-24T12:56:34.759Z,64
2022-09-24T13:02:15.409Z,67.4
2022-09-24T13:07:58.450Z,61.7
2022-09-24T13:13:25.045Z,57.7
2022-09-24T13:19:06.135Z,60.7
2022-09-24T13:24:48.867Z,63.7
2022-09-24T13:30:32.894Z,65.4
2022-09-24T13:36:12.779Z,63.2
2022-09-24T13:41:50.607Z,56.9
2022-09-24T13:47:28.956Z,57
2022-09-24T13:53:06.502Z,55.8
2022-09-24T13:58:44.105Z,54.7
2022-09-24T14:04:22.852Z,52.2
2022-09-24T14:09:44.880Z,49.7
2022-09-24T14:14:51.936Z,47.1
2022-09-24T14:20:15.039Z,44.6
2022-09-24T14:25:37.512Z,42.4
2022-09-24T14:31:17.384Z,40.3
2022-09-24T14:36:58.359Z,38.5
2022-09-24T14:42:21.145Z,36.9
2022-09-24T14:47:59.293Z,35.6
2022-09-24T14:53:37.185Z,34.6
2022-09-24T14:59:02.769Z,33.5
2022-09-24T15:04:40.728Z,32.8
2022-09-24T15:10:22.897Z,32.2
2022-09-24T15:16:01.143Z,31.8
2022-09-24T15:21:39.351Z,31.3
2022-09-24T15:27:20.140Z,30.7
2022-09-24T15:32:57.967Z,30.1
2022-09-24T15:38:20.887Z,29.4
2022-09-24T15:43:43.583Z,28.7
2022-09-24T15:49:07.872Z,27.9
2022-09-24T15:54:52.825Z,26.9
2022-09-24T16:00:20.287Z,26
2022-09-24T16:05:43.663Z,25
2022-09-24T16:11:25.629Z,23.8
2022-09-24T16:16:51.041Z,22.6
2022-09-24T16:21:58.154Z,21.5
2022-09-24T16:27:42.243Z,20.6
2022-09-24T16:33:20.488Z,19.7
2022-09-24T16:38:57.803Z,18.9
2022-09-24T16:44:36.205Z,18.1
2022-09-24T16:50:03.207Z,17.5
2022-09-24T16:54:45.002Z,16.9
2022-09-24T17:00:06.757Z,16.4
2022-09-24T17:05:50.043Z,16
2022-09-24T17:11:34.742Z,15.5
2022-09-24T17:16:57.907Z,15.1
2022-09-24T17:22:38.967Z,14.6
2022-09-24T17:28:20.785Z,14.1
2022-09-24T17:34:15.970Z,13.8
2022-09-24T17:39:53.836Z,13.1
2022-09-24T17:45:16.368Z,12.4
2022-09-24T17:50:44.400Z,12.1
2022-09-24T17:56:07.390Z,11.8
2022-09-24T18:01:45.679Z,11.6
2022-09-24T18:07:08.540Z,11.3
2022-09-24T18:12:35.571Z,11
2022-09-24T18:18:14.193Z,10.7
2022-09-24T18:23:37.486Z,10.4
2022-09-24T18:28:43.492Z,10.3
2022-09-24T18:34:21.882Z,10
2022-09-24T18:39:44.445Z,9.8
2022-09-24T18:45:22.714Z,9.6
2022-09-24T18:50:45.854Z,9.4
2022-09-24T18:56:08.323Z,9.1
2022-09-24T19:01:31.779Z,8.9
2022-09-24T19:07:11.093Z,8.7
2022-09-24T19:12:48.612Z,8.5
2022-09-24T19:18:31.343Z,8.4
2022-09-24T19:23:42.635Z,8.3
2022-09-24T19:28:49.870Z,8.2
2022-09-24T19:33:57.422Z,8
2022-09-24T19:39:20.877Z,7.9
2022-09-24T19:44:13.111Z,7.8
2022-09-24T19:49:19.513Z,7.6
2022-09-24T19:54:31.069Z,7.4
2022-09-24T19:59:57.756Z,7.4
2022-09-24T20:05:20.892Z,7.2
2022-09-24T20:10:33.485Z,7.1
2022-09-24T20:15:24.848Z,7
2022-09-24T20:20:46.865Z,6.8
2022-09-24T20:25:41.551Z,6.7
2022-09-24T20:30:34.836Z,6.6
2022-09-24T20:35:57.688Z,6.4
2022-09-24T20:41:22.128Z,6.3
2022-09-24T20:46:50.829Z,6.1
2022-09-24T20:52:14.583Z,6
2022-09-24T20:57:21.515Z,6
2022-09-24T21:02:45.117Z,5.8
2022-09-24T21:08:49.432Z,5.8
2022-09-24T21:14:29.026Z,5.7
2022-09-24T21:20:41.082Z,5.6
2022-09-24T21:26:43.994Z,5.4
2022-09-24T21:32:07.114Z,5.4
2022-09-24T21:37:44.860Z,5.3
2022-09-24T21:43:22.829Z,5.2
2022-09-24T21:48:44.461Z,5.1
2022-09-24T21:53:51.204Z,5.1
2022-09-24T21:58:57.329Z,4.9
2022-09-24T22:04:35.340Z,4.8
2022-09-24T22:09:57.236Z,4.7
2022-09-24T22:15:34.377Z,4.6
2022-09-24T22:21:12.606Z,4.5
2022-09-24T22:26:18.363Z,4.4
2022-09-24T22:31:32.605Z,4.3
2022-09-24T22:36:56.716Z,4.3
2022-09-24T22:42:37.079Z,4.3
2022-09-24T22:48:17.053Z,4.2
2022-09-24T22:53:40.980Z,4.1
2022-09-24T22:59:20.340Z,4.1
2022-09-24T23:05:05.404Z,4.1
2022-09-24T23:10:27.720Z,4.1
2022-09-24T23:16:05.775Z,4
2022-09-24T23:21:28.702Z,4
2022-09-24T23:27:07.265Z,3.9
2022-09-24T23:32:45.392Z,3.9
2022-09-24T23:38:22.315Z,3.9
2022-09-24T23:43:43.831Z,3.9
2022-09-24T23:49:21.666Z,3.8
2022-09-24T23:54:28.546Z,3.8
2022-09-24T23:59:49.401Z,3.7
